sensor_id;sensor_type;location;lat;lon;timestamp;P1;durP1;ratioP1;P2;durP2;ratioP2
30874;SDS011;17581;43.222;27.924;2022-08-19T00:01:51;15.55;;;10.38;;
30874;SDS011;17581;43.222;27.924;2022-08-19T00:04:19;15.60;;;10.90;;
30874;SDS011;17581;43.222;27.924;2022-08-19T00:06:50;17.05;;;10.77;;
30874;SDS011;17581;43.222;27.924;2022-08-19T00:09:17;17.10;;;11.32;;
30874;SDS011;17581;43.222;27.924;2022-08-19T00:11:44;13.98;;;10.82;;
30874;SDS011;17581;43.222;27.924;2022-08-19T00:14:10;28.27;;;11.82;;
30874;SDS011;17581;43.222;27.924;2022-08-19T00:16:37;13.80;;;11.95;;
30874;SDS011;17581;43.222;27.924;2022-08-19T00:19:04;19.25;;;10.70;;
30874;SDS011;17581;43.222;27.924;2022-08-19T00:21:34;19.30;;;11.80;;
30874;SDS011;17581;43.222;27.924;2022-08-19T00:24:05;20.52;;;11.30;;
30874;SDS011;17581;43.222;27.924;2022-08-19T00:26:33;19.60;;;11.80;;
30874;SDS011;17581;43.222;27.924;2022-08-19T00:28:58;17.92;;;12.05;;
30874;SDS011;17581;43.222;27.924;2022-08-19T00:31:26;17.83;;;13.82;;
30874;SDS011;17581;43.222;27.924;2022-08-19T00:33:53;15.57;;;11.90;;
30874;SDS011;17581;43.222;27.924;2022-08-19T00:36:18;15.45;;;11.82;;
30874;SDS011;17581;43.222;27.924;2022-08-19T00:38:44;16.75;;;11.23;;
30874;SDS011;17581;43.222;27.924;2022-08-19T00:41:12;17.17;;;11.55;;
30874;SDS011;17581;43.222;27.924;2022-08-19T00:46:27;22.73;;;11.30;;
30874;SDS011;17581;43.222;27.924;2022-08-19T00:48:53;12.48;;;10.25;;
30874;SDS011;17581;43.222;27.924;2022-08-19T00:51:20;25.60;;;11.68;;
30874;SDS011;17581;43.222;27.924;2022-08-19T00:53:46;15.38;;;11.15;;
30874;SDS011;17581;43.222;27.924;2022-08-19T00:56:12;20.00;;;10.80;;
30874;SDS011;17581;43.222;27.924;2022-08-19T00:58:37;20.77;;;11.98;;
30874;SDS011;17581;43.222;27.924;2022-08-19T01:01:03;14.88;;;10.35;;
30874;SDS011;17581;43.222;27.924;2022-08-19T01:03:29;18.58;;;10.60;;
30874;SDS011;17581;43.222;27.924;2022-08-19T01:05:55;16.02;;;10.25;;
30874;SDS011;17581;43.222;27.924;2022-08-19T01:08:21;22.05;;;10.77;;
30874;SDS011;17581;43.222;27.924;2022-08-19T01:10:49;15.80;;;11.10;;
30874;SDS011;17581;43.222;27.924;2022-08-19T01:13:19;19.35;;;11.27;;
30874;SDS011;17581;43.222;27.924;2022-08-19T01:15:49;14.85;;;10.60;;
30874;SDS011;17581;43.222;27.924;2022-08-19T01:18:18;15.10;;;11.10;;
30874;SDS011;17581;43.222;27.924;2022-08-19T01:20:46;16.08;;;10.75;;
30874;SDS011;17581;43.222;27.924;2022-08-19T01:23:12;14.05;;;10.25;;
30874;SDS011;17581;43.222;27.924;2022-08-19T01:25:46;16.48;;;10.20;;
30874;SDS011;17581;43.222;27.924;2022-08-19T01:28:19;14.48;;;11.05;;
30874;SDS011;17581;43.222;27.924;2022-08-19T01:33:13;15.23;;;11.13;;
30874;SDS011;17581;43.222;27.924;2022-08-19T01:35:40;18.75;;;10.75;;
30874;SDS011;17581;43.222;27.924;2022-08-19T01:38:07;13.57;;;10.10;;
30874;SDS011;17581;43.222;27.924;2022-08-19T01:40:43;14.25;;;11.35;;
30874;SDS011;17581;43.222;27.924;2022-08-19T01:43:09;12.65;;;11.20;;
30874;SDS011;17581;43.222;27.924;2022-08-19T01:45:34;14.63;;;11.27;;
30874;SDS011;17581;43.222;27.924;2022-08-19T01:48:01;15.10;;;10.27;;
30874;SDS011;17581;43.222;27.924;2022-08-19T01:50:28;19.05;;;11.00;;
30874;SDS011;17581;43.222;27.924;2022-08-19T01:52:55;16.58;;;10.45;;
30874;SDS011;17581;43.222;27.924;2022-08-19T01:55:21;13.50;;;10.20;;
30874;SDS011;17581;43.222;27.924;2022-08-19T01:57:50;13.35;;;10.88;;
30874;SDS011;17581;43.222;27.924;2022-08-19T02:00:21;13.45;;;9.70;;
30874;SDS011;17581;43.222;27.924;2022-08-19T02:02:48;14.73;;;10.10;;
30874;SDS011;17581;43.222;27.924;2022-08-19T02:05:14;16.98;;;11.52;;
30874;SDS011;17581;43.222;27.924;2022-08-19T02:07:43;15.25;;;10.65;;
30874;SDS011;17581;43.222;27.924;2022-08-19T02:10:11;25.52;;;11.52;;
30874;SDS011;17581;43.222;27.924;2022-08-19T02:12:39;26.08;;;12.38;;
30874;SDS011;17581;43.222;27.924;2022-08-19T02:15:05;14.50;;;10.07;;
30874;SDS011;17581;43.222;27.924;2022-08-19T02:17:31;14.63;;;10.98;;
30874;SDS011;17581;43.222;27.924;2022-08-19T02:19:57;20.52;;;11.07;;
30874;SDS011;17581;43.222;27.924;2022-08-19T02:22:23;22.33;;;10.73;;
30874;SDS011;17581;43.222;27.924;2022-08-19T02:24:50;15.95;;;10.57;;
30874;SDS011;17581;43.222;27.924;2022-08-19T02:27:16;19.05;;;11.23;;
30874;SDS011;17581;43.222;27.924;2022-08-19T02:29:42;13.75;;;11.50;;
30874;SDS011;17581;43.222;27.924;2022-08-19T02:32:08;14.38;;;11.45;;
30874;SDS011;17581;43.222;27.924;2022-08-19T02:34:34;19.52;;;11.45;;
30874;SDS011;17581;43.222;27.924;2022-08-19T02:36:59;15.93;;;10.68;;
30874;SDS011;17581;43.222;27.924;2022-08-19T02:39:25;15.23;;;10.95;;
30874;SDS011;17581;43.222;27.924;2022-08-19T02:41:51;17.52;;;11.60;;
30874;SDS011;17581;43.222;27.924;2022-08-19T02:44:17;15.32;;;10.10;;
30874;SDS011;17581;43.222;27.924;2022-08-19T02:46:44;17.45;;;10.93;;
30874;SDS011;17581;43.222;27.924;2022-08-19T02:49:11;14.35;;;10.80;;
30874;SDS011;17581;43.222;27.924;2022-08-19T02:51:39;25.25;;;11.90;;
30874;SDS011;17581;43.222;27.924;2022-08-19T02:54:09;22.88;;;13.85;;
30874;SDS011;17581;43.222;27.924;2022-08-19T02:56:36;19.83;;;13.55;;
30874;SDS011;17581;43.222;27.924;2022-08-19T02:59:03;21.98;;;13.05;;
30874;SDS011;17581;43.222;27.924;2022-08-19T03:01:35;21.75;;;13.80;;
30874;SDS011;17581;43.222;27.924;2022-08-19T03:04:02;20.95;;;13.63;;
30874;SDS011;17581;43.222;27.924;2022-08-19T03:06:31;19.90;;;14.50;;
30874;SDS011;17581;43.222;27.924;2022-08-19T03:08:57;22.02;;;14.75;;
30874;SDS011;17581;43.222;27.924;2022-08-19T03:11:27;27.83;;;13.90;;
30874;SDS011;17581;43.222;27.924;2022-08-19T03:13:55;22.67;;;14.02;;
30874;SDS011;17581;43.222;27.924;2022-08-19T03:16:21;30.60;;;15.23;;
30874;SDS011;17581;43.222;27.924;2022-08-19T03:18:48;21.40;;;14.55;;
30874;SDS011;17581;43.222;27.924;2022-08-19T03:21:20;25.63;;;14.93;;
30874;SDS011;17581;43.222;27.924;2022-08-19T03:23:49;23.83;;;14.98;;
30874;SDS011;17581;43.222;27.924;2022-08-19T03:26:15;25.52;;;14.95;;
30874;SDS011;17581;43.222;27.924;2022-08-19T03:28:41;28.33;;;14.88;;
30874;SDS011;17581;43.222;27.924;2022-08-19T03:31:09;25.13;;;15.20;;
30874;SDS011;17581;43.222;27.924;2022-08-19T03:33:37;24.55;;;14.77;;
30874;SDS011;17581;43.222;27.924;2022-08-19T03:38:38;20.20;;;13.75;;
30874;SDS011;17581;43.222;27.924;2022-08-19T03:41:06;22.45;;;14.65;;
30874;SDS011;17581;43.222;27.924;2022-08-19T03:43:34;31.70;;;14.57;;
30874;SDS011;17581;43.222;27.924;2022-08-19T03:46:05;22.85;;;13.82;;
30874;SDS011;17581;43.222;27.924;2022-08-19T03:48:38;32.40;;;14.77;;
30874;SDS011;17581;43.222;27.924;2022-08-19T03:51:05;27.13;;;14.93;;
30874;SDS011;17581;43.222;27.924;2022-08-19T03:53:32;20.02;;;13.75;;
30874;SDS011;17581;43.222;27.924;2022-08-19T03:55:59;30.90;;;13.95;;
30874;SDS011;17581;43.222;27.924;2022-08-19T03:58:25;34.83;;;15.07;;
30874;SDS011;17581;43.222;27.924;2022-08-19T04:00:54;27.75;;;13.38;;
30874;SDS011;17581;43.222;27.924;2022-08-19T04:03:21;25.80;;;13.82;;
30874;SDS011;17581;43.222;27.924;2022-08-19T04:05:47;21.95;;;12.60;;
30874;SDS011;17581;43.222;27.924;2022-08-19T04:08:13;19.48;;;12.20;;
30874;SDS011;17581;43.222;27.924;2022-08-19T04:10:46;20.08;;;12.68;;
30874;SDS011;17581;43.222;27.924;2022-08-19T04:13:13;21.30;;;13.35;;
30874;SDS011;17581;43.222;27.924;2022-08-19T04:15:40;22.25;;;12.43;;
30874;SDS011;17581;43.222;27.924;2022-08-19T04:18:07;23.17;;;12.77;;
30874;SDS011;17581;43.222;27.924;2022-08-19T04:20:43;23.30;;;12.52;;
30874;SDS011;17581;43.222;27.924;2022-08-19T04:23:11;19.52;;;11.38;;
30874;SDS011;17581;43.222;27.924;2022-08-19T04:25:38;18.52;;;11.18;;
30874;SDS011;17581;43.222;27.924;2022-08-19T04:28:06;24.20;;;13.80;;
30874;SDS011;17581;43.222;27.924;2022-08-19T04:30:42;27.08;;;14.93;;
30874;SDS011;17581;43.222;27.924;2022-08-19T04:33:11;36.97;;;17.35;;
30874;SDS011;17581;43.222;27.924;2022-08-19T04:35:39;23.25;;;17.17;;
30874;SDS011;17581;43.222;27.924;2022-08-19T04:38:06;30.40;;;15.82;;
30874;SDS011;17581;43.222;27.924;2022-08-19T04:40:32;36.28;;;15.98;;
30874;SDS011;17581;43.222;27.924;2022-08-19T04:43:16;40.40;;;16.42;;
30874;SDS011;17581;43.222;27.924;2022-08-19T04:45:43;35.30;;;15.70;;
30874;SDS011;17581;43.222;27.924;2022-08-19T04:48:09;27.50;;;16.23;;
30874;SDS011;17581;43.222;27.924;2022-08-19T04:50:35;19.42;;;13.70;;
30874;SDS011;17581;43.222;27.924;2022-08-19T04:53:01;22.88;;;15.10;;
30874;SDS011;17581;43.222;27.924;2022-08-19T04:55:26;20.98;;;14.52;;
30874;SDS011;17581;43.222;27.924;2022-08-19T04:57:52;30.98;;;14.77;;
30874;SDS011;17581;43.222;27.924;2022-08-19T05:00:18;32.20;;;15.63;;
30874;SDS011;17581;43.222;27.924;2022-08-19T05:02:44;30.20;;;15.57;;
30874;SDS011;17581;43.222;27.924;2022-08-19T05:05:09;32.35;;;15.30;;
30874;SDS011;17581;43.222;27.924;2022-08-19T05:07:35;34.65;;;16.33;;
30874;SDS011;17581;43.222;27.924;2022-08-19T05:10:01;23.67;;;15.95;;
30874;SDS011;17581;43.222;27.924;2022-08-19T05:12:29;26.23;;;15.68;;
30874;SDS011;17581;43.222;27.924;2022-08-19T05:14:55;28.40;;;16.42;;
30874;SDS011;17581;43.222;27.924;2022-08-19T05:17:22;108.53;;;23.92;;
30874;SDS011;17581;43.222;27.924;2022-08-19T05:19:47;22.60;;;12.98;;
30874;SDS011;17581;43.222;27.924;2022-08-19T05:22:31;24.23;;;11.18;;
30874;SDS011;17581;43.222;27.924;2022-08-19T05:24:58;15.95;;;10.57;;
30874;SDS011;17581;43.222;27.924;2022-08-19T05:27:25;15.70;;;10.90;;
30874;SDS011;17581;43.222;27.924;2022-08-19T05:29:50;18.95;;;12.30;;
30874;SDS011;17581;43.222;27.924;2022-08-19T05:32:16;21.23;;;11.25;;
30874;SDS011;17581;43.222;27.924;2022-08-19T05:34:41;22.92;;;10.18;;
30874;SDS011;17581;43.222;27.924;2022-08-19T05:37:07;18.15;;;11.07;;
30874;SDS011;17581;43.222;27.924;2022-08-19T05:39:34;17.95;;;10.38;;
30874;SDS011;17581;43.222;27.924;2022-08-19T05:42:03;16.92;;;10.68;;
30874;SDS011;17581;43.222;27.924;2022-08-19T05:44:33;23.40;;;11.43;;
30874;SDS011;17581;43.222;27.924;2022-08-19T05:47:02;16.98;;;10.57;;
30874;SDS011;17581;43.222;27.924;2022-08-19T05:49:30;14.18;;;10.93;;
30874;SDS011;17581;43.222;27.924;2022-08-19T05:51:56;23.48;;;11.02;;
30874;SDS011;17581;43.222;27.924;2022-08-19T05:54:24;18.00;;;11.23;;
30874;SDS011;17581;43.222;27.924;2022-08-19T05:56:51;19.67;;;10.82;;
30874;SDS011;17581;43.222;27.924;2022-08-19T05:59:17;22.55;;;10.93;;
30874;SDS011;17581;43.222;27.924;2022-08-19T06:01:46;18.60;;;11.35;;
30874;SDS011;17581;43.222;27.924;2022-08-19T06:04:16;14.23;;;10.50;;
30874;SDS011;17581;43.222;27.924;2022-08-19T06:06:43;18.65;;;11.15;;
30874;SDS011;17581;43.222;27.924;2022-08-19T06:09:11;20.90;;;10.65;;
30874;SDS011;17581;43.222;27.924;2022-08-19T06:11:41;33.92;;;17.90;;
30874;SDS011;17581;43.222;27.924;2022-08-19T06:14:15;19.38;;;10.32;;
30874;SDS011;17581;43.222;27.924;2022-08-19T06:16:43;20.98;;;10.20;;
30874;SDS011;17581;43.222;27.924;2022-08-19T06:19:10;12.32;;;8.93;;
30874;SDS011;17581;43.222;27.924;2022-08-19T06:21:38;24.05;;;11.50;;
30874;SDS011;17581;43.222;27.924;2022-08-19T06:24:08;16.55;;;9.23;;
30874;SDS011;17581;43.222;27.924;2022-08-19T06:26:36;13.90;;;10.20;;
30874;SDS011;17581;43.222;27.924;2022-08-19T06:29:05;16.67;;;9.73;;
30874;SDS011;17581;43.222;27.924;2022-08-19T06:31:33;19.48;;;10.32;;
30874;SDS011;17581;43.222;27.924;2022-08-19T06:34:03;21.15;;;10.57;;
30874;SDS011;17581;43.222;27.924;2022-08-19T06:36:31;15.65;;;8.77;;
30874;SDS011;17581;43.222;27.924;2022-08-19T06:39:03;20.88;;;9.88;;
30874;SDS011;17581;43.222;27.924;2022-08-19T06:41:31;30.55;;;10.93;;
30874;SDS011;17581;43.222;27.924;2022-08-19T06:44:03;16.48;;;9.23;;
30874;SDS011;17581;43.222;27.924;2022-08-19T06:46:29;18.77;;;9.40;;
30874;SDS011;17581;43.222;27.924;2022-08-19T06:48:55;13.90;;;9.20;;
30874;SDS011;17581;43.222;27.924;2022-08-19T06:51:21;26.63;;;8.38;;
30874;SDS011;17581;43.222;27.924;2022-08-19T06:53:49;17.23;;;8.57;;
30874;SDS011;17581;43.222;27.924;2022-08-19T06:56:18;14.32;;;9.02;;
30874;SDS011;17581;43.222;27.924;2022-08-19T06:58:46;18.95;;;9.68;;
30874;SDS011;17581;43.222;27.924;2022-08-19T07:01:13;19.25;;;9.13;;
30874;SDS011;17581;43.222;27.924;2022-08-19T07:03:38;14.32;;;8.70;;
30874;SDS011;17581;43.222;27.924;2022-08-19T07:06:08;21.33;;;9.32;;
30874;SDS011;17581;43.222;27.924;2022-08-19T07:08:40;20.50;;;9.55;;
30874;SDS011;17581;43.222;27.924;2022-08-19T07:11:08;13.90;;;9.77;;
30874;SDS011;17581;43.222;27.924;2022-08-19T07:13:38;23.15;;;12.00;;
30874;SDS011;17581;43.222;27.924;2022-08-19T07:18:34;15.25;;;8.63;;
30874;SDS011;17581;43.222;27.924;2022-08-19T07:21:07;16.42;;;10.15;;
30874;SDS011;17581;43.222;27.924;2022-08-19T07:23:35;16.42;;;10.10;;
30874;SDS011;17581;43.222;27.924;2022-08-19T07:26:20;23.92;;;8.82;;
30874;SDS011;17581;43.222;27.924;2022-08-19T07:28:51;18.67;;;8.77;;
30874;SDS011;17581;43.222;27.924;2022-08-19T07:31:17;16.73;;;9.30;;
30874;SDS011;17581;43.222;27.924;2022-08-19T07:33:46;16.35;;;10.55;;
30874;SDS011;17581;43.222;27.924;2022-08-19T07:36:14;23.85;;;9.15;;
30874;SDS011;17581;43.222;27.924;2022-08-19T07:38:44;26.58;;;9.40;;
30874;SDS011;17581;43.222;27.924;2022-08-19T07:41:14;19.50;;;10.00;;
30874;SDS011;17581;43.222;27.924;2022-08-19T07:43:42;17.20;;;9.68;;
30874;SDS011;17581;43.222;27.924;2022-08-19T07:46:08;26.10;;;9.55;;
30874;SDS011;17581;43.222;27.924;2022-08-19T07:48:35;30.13;;;8.60;;
30874;SDS011;17581;43.222;27.924;2022-08-19T07:51:04;21.77;;;8.82;;
30874;SDS011;17581;43.222;27.924;2022-08-19T07:53:31;16.40;;;8.40;;
30874;SDS011;17581;43.222;27.924;2022-08-19T07:55:58;14.75;;;8.70;;
30874;SDS011;17581;43.222;27.924;2022-08-19T07:58:27;16.55;;;8.07;;
30874;SDS011;17581;43.222;27.924;2022-08-19T08:00:53;19.75;;;8.25;;
30874;SDS011;17581;43.222;27.924;2022-08-19T08:03:20;18.10;;;9.48;;
30874;SDS011;17581;43.222;27.924;2022-08-19T08:06:06;23.25;;;8.20;;
30874;SDS011;17581;43.222;27.924;2022-08-19T08:08:50;35.85;;;9.75;;
30874;SDS011;17581;43.222;27.924;2022-08-19T08:11:34;34.10;;;9.30;;
30874;SDS011;17581;43.222;27.924;2022-08-19T08:14:02;21.90;;;8.48;;
30874;SDS011;17581;43.222;27.924;2022-08-19T08:16:29;11.25;;;8.20;;
30874;SDS011;17581;43.222;27.924;2022-08-19T08:18:58;16.83;;;7.72;;
30874;SDS011;17581;43.222;27.924;2022-08-19T08:21:24;15.57;;;7.00;;
30874;SDS011;17581;43.222;27.924;2022-08-19T08:23:49;21.38;;;8.23;;
30874;SDS011;17581;43.222;27.924;2022-08-19T08:26:16;25.95;;;9.13;;
30874;SDS011;17581;43.222;27.924;2022-08-19T08:28:42;29.52;;;9.57;;
30874;SDS011;17581;43.222;27.924;2022-08-19T08:31:07;19.65;;;7.93;;
30874;SDS011;17581;43.222;27.924;2022-08-19T08:33:34;24.05;;;8.07;;
30874;SDS011;17581;43.222;27.924;2022-08-19T08:36:00;36.50;;;8.73;;
30874;SDS011;17581;43.222;27.924;2022-08-19T08:38:32;18.52;;;9.15;;
30874;SDS011;17581;43.222;27.924;2022-08-19T08:41:05;24.88;;;8.95;;
30874;SDS011;17581;43.222;27.924;2022-08-19T08:43:53;25.77;;;7.72;;
30874;SDS011;17581;43.222;27.924;2022-08-19T08:46:34;17.30;;;9.05;;
30874;SDS011;17581;43.222;27.924;2022-08-19T08:52:04;33.10;;;9.10;;
30874;SDS011;17581;43.222;27.924;2022-08-19T08:54:39;22.75;;;8.15;;
30874;SDS011;17581;43.222;27.924;2022-08-19T08:57:12;25.98;;;7.68;;
30874;SDS011;17581;43.222;27.924;2022-08-19T08:59:43;13.93;;;6.85;;
30874;SDS011;17581;43.222;27.924;2022-08-19T09:02:15;15.35;;;6.45;;
30874;SDS011;17581;43.222;27.924;2022-08-19T09:04:41;12.02;;;7.93;;
30874;SDS011;17581;43.222;27.924;2022-08-19T09:09:42;17.45;;;7.20;;
30874;SDS011;17581;43.222;27.924;2022-08-19T09:15:09;30.60;;;8.23;;
30874;SDS011;17581;43.222;27.924;2022-08-19T09:17:36;26.88;;;8.35;;
30874;SDS011;17581;43.222;27.924;2022-08-19T09:20:18;28.55;;;7.22;;
30874;SDS011;17581;43.222;27.924;2022-08-19T09:25:12;14.38;;;7.30;;
30874;SDS011;17581;43.222;27.924;2022-08-19T09:27:40;18.00;;;7.25;;
30874;SDS011;17581;43.222;27.924;2022-08-19T09:30:07;39.30;;;8.23;;
30874;SDS011;17581;43.222;27.924;2022-08-19T09:32:35;17.33;;;7.93;;
30874;SDS011;17581;43.222;27.924;2022-08-19T09:35:01;28.10;;;7.07;;
30874;SDS011;17581;43.222;27.924;2022-08-19T09:37:26;13.52;;;6.85;;
30874;SDS011;17581;43.222;27.924;2022-08-19T09:39:52;20.25;;;7.25;;
30874;SDS011;17581;43.222;27.924;2022-08-19T09:42:18;18.02;;;11.93;;
30874;SDS011;17581;43.222;27.924;2022-08-19T09:44:45;16.25;;;7.15;;
30874;SDS011;17581;43.222;27.924;2022-08-19T09:47:11;21.33;;;7.22;;
30874;SDS011;17581;43.222;27.924;2022-08-19T09:49:38;33.40;;;8.45;;
30874;SDS011;17581;43.222;27.924;2022-08-19T09:52:05;18.13;;;8.10;;
30874;SDS011;17581;43.222;27.924;2022-08-19T09:54:33;23.40;;;7.93;;
30874;SDS011;17581;43.222;27.924;2022-08-19T09:56:59;38.78;;;9.63;;
30874;SDS011;17581;43.222;27.924;2022-08-19T09:59:25;31.50;;;8.25;;
30874;SDS011;17581;43.222;27.924;2022-08-19T10:01:51;11.70;;;7.35;;
30874;SDS011;17581;43.222;27.924;2022-08-19T10:04:17;21.20;;;8.32;;
30874;SDS011;17581;43.222;27.924;2022-08-19T10:06:42;21.08;;;7.95;;
30874;SDS011;17581;43.222;27.924;2022-08-19T10:09:08;23.13;;;9.95;;
30874;SDS011;17581;43.222;27.924;2022-08-19T10:11:36;20.02;;;8.35;;
30874;SDS011;17581;43.222;27.924;2022-08-19T10:14:04;24.27;;;7.07;;
30874;SDS011;17581;43.222;27.924;2022-08-19T10:16:33;34.33;;;8.57;;
30874;SDS011;17581;43.222;27.924;2022-08-19T10:18:58;20.40;;;7.28;;
30874;SDS011;17581;43.222;27.924;2022-08-19T10:21:29;30.50;;;8.02;;
30874;SDS011;17581;43.222;27.924;2022-08-19T10:23:57;15.15;;;7.75;;
30874;SDS011;17581;43.222;27.924;2022-08-19T10:26:26;15.20;;;6.75;;
30874;SDS011;17581;43.222;27.924;2022-08-19T10:28:53;22.63;;;7.45;;
30874;SDS011;17581;43.222;27.924;2022-08-19T10:31:29;15.75;;;7.47;;
30874;SDS011;17581;43.222;27.924;2022-08-19T10:33:56;21.20;;;6.82;;
30874;SDS011;17581;43.222;27.924;2022-08-19T10:36:26;15.30;;;6.80;;
30874;SDS011;17581;43.222;27.924;2022-08-19T10:38:55;21.35;;;7.85;;
30874;SDS011;17581;43.222;27.924;2022-08-19T10:41:25;13.13;;;6.32;;
30874;SDS011;17581;43.222;27.924;2022-08-19T10:43:52;29.13;;;7.63;;
30874;SDS011;17581;43.222;27.924;2022-08-19T10:46:20;12.15;;;6.68;;
30874;SDS011;17581;43.222;27.924;2022-08-19T10:48:48;14.25;;;6.18;;
30874;SDS011;17581;43.222;27.924;2022-08-19T10:51:14;15.77;;;6.68;;
30874;SDS011;17581;43.222;27.924;2022-08-19T10:53:59;18.75;;;7.03;;
30874;SDS011;17581;43.222;27.924;2022-08-19T10:56:26;18.13;;;6.43;;
30874;SDS011;17581;43.222;27.924;2022-08-19T10:59:10;33.85;;;6.97;;
30874;SDS011;17581;43.222;27.924;2022-08-19T11:01:38;12.98;;;6.75;;
30874;SDS011;17581;43.222;27.924;2022-08-19T11:04:04;15.98;;;7.40;;
30874;SDS011;17581;43.222;27.924;2022-08-19T11:06:33;21.67;;;9.18;;
30874;SDS011;17581;43.222;27.924;2022-08-19T11:08:58;15.02;;;9.73;;
30874;SDS011;17581;43.222;27.924;2022-08-19T11:11:25;12.68;;;9.80;;
30874;SDS011;17581;43.222;27.924;2022-08-19T11:13:51;32.88;;;11.23;;
30874;SDS011;17581;43.222;27.924;2022-08-19T11:16:21;22.92;;;11.43;;
30874;SDS011;17581;43.222;27.924;2022-08-19T11:18:49;32.20;;;10.57;;
30874;SDS011;17581;43.222;27.924;2022-08-19T11:23:46;13.30;;;9.57;;
30874;SDS011;17581;43.222;27.924;2022-08-19T11:26:13;30.25;;;11.52;;
30874;SDS011;17581;43.222;27.924;2022-08-19T11:28:40;18.48;;;12.20;;
30874;SDS011;17581;43.222;27.924;2022-08-19T11:31:13;22.38;;;11.80;;
30874;SDS011;17581;43.222;27.924;2022-08-19T11:33:44;18.10;;;11.40;;
30874;SDS011;17581;43.222;27.924;2022-08-19T11:36:11;19.15;;;10.75;;
30874;SDS011;17581;43.222;27.924;2022-08-19T11:38:37;25.67;;;12.32;;
30874;SDS011;17581;43.222;27.924;2022-08-19T11:41:04;18.52;;;12.55;;
30874;SDS011;17581;43.222;27.924;2022-08-19T11:43:35;24.15;;;11.82;;
30874;SDS011;17581;43.222;27.924;2022-08-19T11:46:05;18.02;;;11.40;;
30874;SDS011;17581;43.222;27.924;2022-08-19T11:48:32;29.85;;;12.80;;
30874;SDS011;17581;43.222;27.924;2022-08-19T11:50:58;22.17;;;10.95;;
30874;SDS011;17581;43.222;27.924;2022-08-19T11:53:24;31.38;;;10.98;;
30874;SDS011;17581;43.222;27.924;2022-08-19T11:55:49;20.00;;;11.13;;
30874;SDS011;17581;43.222;27.924;2022-08-19T11:58:20;20.23;;;11.60;;
30874;SDS011;17581;43.222;27.924;2022-08-19T12:00:47;25.45;;;11.27;;
30874;SDS011;17581;43.222;27.924;2022-08-19T12:03:12;18.05;;;10.68;;
30874;SDS011;17581;43.222;27.924;2022-08-19T12:05:39;19.80;;;10.43;;
30874;SDS011;17581;43.222;27.924;2022-08-19T12:08:06;18.70;;;10.73;;
30874;SDS011;17581;43.222;27.924;2022-08-19T12:10:32;21.58;;;11.18;;
30874;SDS011;17581;43.222;27.924;2022-08-19T12:12:59;23.92;;;11.30;;
30874;SDS011;17581;43.222;27.924;2022-08-19T12:15:24;38.67;;;11.52;;
30874;SDS011;17581;43.222;27.924;2022-08-19T12:17:52;18.55;;;11.32;;
30874;SDS011;17581;43.222;27.924;2022-08-19T12:20:20;27.48;;;11.55;;
30874;SDS011;17581;43.222;27.924;2022-08-19T12:22:45;22.38;;;11.50;;
30874;SDS011;17581;43.222;27.924;2022-08-19T12:25:11;19.05;;;10.48;;
30874;SDS011;17581;43.222;27.924;2022-08-19T12:27:37;24.80;;;11.52;;
30874;SDS011;17581;43.222;27.924;2022-08-19T12:30:04;22.13;;;11.40;;
30874;SDS011;17581;43.222;27.924;2022-08-19T12:32:33;29.75;;;11.32;;
30874;SDS011;17581;43.222;27.924;2022-08-19T12:34:58;24.50;;;10.80;;
30874;SDS011;17581;43.222;27.924;2022-08-19T12:37:24;24.77;;;11.10;;
30874;SDS011;17581;43.222;27.924;2022-08-19T12:39:49;27.08;;;10.65;;
30874;SDS011;17581;43.222;27.924;2022-08-19T12:42:15;24.02;;;10.90;;
30874;SDS011;17581;43.222;27.924;2022-08-19T12:44:41;26.13;;;10.73;;
30874;SDS011;17581;43.222;27.924;2022-08-19T12:47:08;13.68;;;10.65;;
30874;SDS011;17581;43.222;27.924;2022-08-19T12:49:35;14.00;;;10.18;;
30874;SDS011;17581;43.222;27.924;2022-08-19T12:52:02;42.83;;;11.73;;
30874;SDS011;17581;43.222;27.924;2022-08-19T12:54:29;23.20;;;10.55;;
30874;SDS011;17581;43.222;27.924;2022-08-19T12:56:56;14.65;;;10.05;;
30874;SDS011;17581;43.222;27.924;2022-08-19T12:59:23;18.10;;;10.35;;
30874;SDS011;17581;43.222;27.924;2022-08-19T13:01:48;21.15;;;10.35;;
30874;SDS011;17581;43.222;27.924;2022-08-19T13:04:14;28.17;;;10.75;;
30874;SDS011;17581;43.222;27.924;2022-08-19T13:06:41;22.90;;;10.90;;
30874;SDS011;17581;43.222;27.924;2022-08-19T13:09:07;21.88;;;9.75;;
30874;SDS011;17581;43.222;27.924;2022-08-19T13:11:33;19.80;;;10.30;;
30874;SDS011;17581;43.222;27.924;2022-08-19T13:13:59;34.70;;;11.50;;
30874;SDS011;17581;43.222;27.924;2022-08-19T13:16:26;36.25;;;11.45;;
30874;SDS011;17581;43.222;27.924;2022-08-19T13:18:53;17.77;;;11.00;;
30874;SDS011;17581;43.222;27.924;2022-08-19T13:21:21;19.85;;;9.57;;
30874;SDS011;17581;43.222;27.924;2022-08-19T13:23:48;20.15;;;10.30;;
30874;SDS011;17581;43.222;27.924;2022-08-19T13:26:14;19.10;;;10.18;;
30874;SDS011;17581;43.222;27.924;2022-08-19T13:28:41;36.42;;;10.88;;
30874;SDS011;17581;43.222;27.924;2022-08-19T13:31:27;25.83;;;10.38;;
30874;SDS011;17581;43.222;27.924;2022-08-19T13:34:12;17.45;;;8.93;;
30874;SDS011;17581;43.222;27.924;2022-08-19T13:36:38;18.55;;;9.52;;
30874;SDS011;17581;43.222;27.924;2022-08-19T13:39:04;28.02;;;10.18;;
30874;SDS011;17581;43.222;27.924;2022-08-19T13:41:32;20.02;;;9.65;;
30874;SDS011;17581;43.222;27.924;2022-08-19T13:43:58;23.23;;;9.50;;
30874;SDS011;17581;43.222;27.924;2022-08-19T13:46:24;18.55;;;8.93;;
30874;SDS011;17581;43.222;27.924;2022-08-19T13:48:49;29.08;;;10.20;;
30874;SDS011;17581;43.222;27.924;2022-08-19T13:51:15;19.42;;;9.23;;
30874;SDS011;17581;43.222;27.924;2022-08-19T13:53:42;30.50;;;9.65;;
30874;SDS011;17581;43.222;27.924;2022-08-19T13:56:10;24.75;;;9.90;;
30874;SDS011;17581;43.222;27.924;2022-08-19T13:58:37;19.45;;;9.65;;
30874;SDS011;17581;43.222;27.924;2022-08-19T14:01:04;27.73;;;9.18;;
30874;SDS011;17581;43.222;27.924;2022-08-19T14:03:31;22.02;;;9.70;;
30874;SDS011;17581;43.222;27.924;2022-08-19T14:05:57;28.58;;;8.90;;
30874;SDS011;17581;43.222;27.924;2022-08-19T14:08:23;27.40;;;8.85;;
30874;SDS011;17581;43.222;27.924;2022-08-19T14:10:49;17.08;;;8.25;;
30874;SDS011;17581;43.222;27.924;2022-08-19T14:13:16;21.25;;;8.23;;
30874;SDS011;17581;43.222;27.924;2022-08-19T14:15:44;31.35;;;9.60;;
30874;SDS011;17581;43.222;27.924;2022-08-19T14:18:10;24.15;;;8.25;;
30874;SDS011;17581;43.222;27.924;2022-08-19T14:20:36;20.17;;;7.90;;
30874;SDS011;17581;43.222;27.924;2022-08-19T14:23:02;27.90;;;8.48;;
30874;SDS011;17581;43.222;27.924;2022-08-19T14:25:31;18.20;;;8.18;;
30874;SDS011;17581;43.222;27.924;2022-08-19T14:27:58;24.98;;;8.93;;
30874;SDS011;17581;43.222;27.924;2022-08-19T14:30:27;31.55;;;9.50;;
30874;SDS011;17581;43.222;27.924;2022-08-19T14:32:58;15.20;;;8.27;;
30874;SDS011;17581;43.222;27.924;2022-08-19T14:35:25;18.90;;;8.55;;
30874;SDS011;17581;43.222;27.924;2022-08-19T14:37:51;16.55;;;8.32;;
30874;SDS011;17581;43.222;27.924;2022-08-19T14:40:22;14.63;;;8.25;;
30874;SDS011;17581;43.222;27.924;2022-08-19T14:42:51;24.15;;;8.05;;